Time;durP1;ratioP1;P1;durP2;ratioP2;P2;SDS_P1;SDS_P2;PMS_P1;PMS_P2;Temp;Humidity;BMP_temperature;BMP_pressure;BME280_temperature;BME280_humidity;BME280_pressure;Samples;Min_cycle;Max_cycle;Signal;HPM_P1;HPM_P2
2021/10/19 00:01:48;;;;;;;0.60;0.60;;;;;;;6.43;100.00;101033.50;5013062;28;20938;-51
2021/10/19 00:04:15;;;;;;;0.43;0.40;;;;;;;6.60;100.00;101035.28;5012923;28;20551;-51
2021/10/19 00:06:41;;;;;;;0.30;0.20;;;;;;;6.58;100.00;101040.56;5013114;28;21018;-49
2021/10/19 00:09:08;;;;;;;0.30;0.20;;;;;;;6.72;100.00;101038.78;5012924;28;20502;-50
2021/10/19 00:11:34;;;;;;;2.37;1.23;;;;;;;6.79;100.00;101029.97;5012826;28;20542;-49
2021/10/19 00:14:01;;;;;;;0.93;0.93;;;;;;;6.78;100.00;101033.50;5012977;28;20519;-51
2021/10/19 00:16:28;;;;;;;0.30;0.20;;;;;;;6.63;100.00;101038.78;5006747;28;20524;-51
2021/10/19 00:18:55;;;;;;;0.30;0.20;;;;;;;6.65;100.00;101022.94;4987594;28;20523;-50
2021/10/19 00:21:21;;;;;;;0.30;0.20;;;;;;;6.55;100.00;101035.25;5013121;28;20817;-50
2021/10/19 00:23:48;;;;;;;0.40;0.30;;;;;;;6.64;100.00;101037.91;5007052;28;20940;-50
2021/10/19 00:26:14;;;;;;;3.20;1.90;;;;;;;6.68;100.00;101041.41;5006560;28;20495;-50
2021/10/19 00:28:41;;;;;;;0.83;0.83;;;;;;;6.78;100.00;101037.91;5012996;28;20453;-50
2021/10/19 00:31:08;;;;;;;0.30;0.20;;;;;;;6.86;100.00;101025.56;5012607;28;20538;-50
2021/10/19 00:33:34;;;;;;;0.40;0.40;;;;;;;6.98;100.00;101038.72;5012653;28;20508;-49
2021/10/19 00:36:01;;;;;;;0.47;0.47;;;;;;;7.03;100.00;101038.75;5012608;28;20876;-50
2021/10/19 00:38:27;;;;;;;0.30;0.20;;;;;;;6.97;100.00;101033.44;5012503;28;20453;-50
2021/10/19 00:40:55;;;;;;;0.43;0.43;;;;;;;7.05;100.00;101034.34;5012742;28;20445;-49
2021/10/19 00:43:23;;;;;;;0.30;0.20;;;;;;;6.94;100.00;101036.09;5012461;28;20473;-49
2021/10/19 00:45:50;;;;;;;0.87;0.83;;;;;;;6.73;100.00;101027.34;5012757;28;20452;-49
2021/10/19 00:48:18;;;;;;;2.00;2.00;;;;;;;6.75;100.00;101024.69;5013605;28;20503;-49
2021/10/19 00:50:45;;;;;;;0.30;0.20;;;;;;;6.98;100.00;101027.28;5012891;28;20485;-50
2021/10/19 00:53:16;;;;;;;0.40;0.40;;;;;;;6.95;100.00;101014.09;5013645;28;21013;-49
2021/10/19 00:55:43;;;;;;;0.30;0.20;;;;;;;7.09;100.00;101025.50;5012622;28;20542;-50
2021/10/19 00:58:11;;;;;;;0.30;0.20;;;;;;;7.26;100.00;101028.09;5016715;28;20550;-49
2021/10/19 01:00:37;;;;;;;0.30;0.20;;;;;;;7.25;100.00;101036.91;5016421;28;20465;-49
2021/10/19 01:03:05;;;;;;;0.60;0.60;;;;;;;7.15;100.00;101022.84;5016278;28;20848;-49
2021/10/19 01:05:33;;;;;;;0.30;0.20;;;;;;;7.18;100.00;101025.47;5016045;28;20519;-49
2021/10/19 01:07:59;;;;;;;0.90;0.90;;;;;;;7.26;100.00;101022.81;5016483;28;20507;-50
2021/10/19 01:10:26;;;;;;;0.30;0.20;;;;;;;7.25;100.00;101027.22;5016653;28;20464;-49
2021/10/19 01:12:53;;;;;;;0.90;0.90;;;;;;;7.38;100.00;101028.06;5016156;28;20468;-49
2021/10/19 01:15:20;;;;;;;0.30;0.20;;;;;;;7.26;100.00;101028.09;5016032;28;20515;-49
2021/10/19 01:17:49;;;;;;;1.00;1.00;;;;;;;7.29;100.00;101012.25;5009730;28;20464;-50
2021/10/19 01:20:20;;;;;;;0.30;0.20;;;;;;;7.33;100.00;101012.22;5016070;28;20475;-49
2021/10/19 01:22:47;;;;;;;1.03;0.50;;;;;;;7.42;100.00;101013.97;5016367;28;20486;-50
2021/10/19 01:25:19;;;;;;;1.07;0.67;;;;;;;7.27;100.00;101012.25;5002710;28;20483;-51
2021/10/19 01:27:47;;;;;;;0.50;0.50;;;;;;;7.20;100.00;101007.84;5003309;28;20531;-50
2021/10/19 01:30:14;;;;;;;1.20;1.20;;;;;;;7.17;100.00;101010.50;5018063;28;20445;-50
2021/10/19 01:32:43;;;;;;;0.67;0.57;;;;;;;7.27;100.00;101003.44;5017754;28;20500;-50
2021/10/19 01:35:11;;;;;;;0.30;0.20;;;;;;;7.28;100.00;100999.91;4991770;28;20476;-52
2021/10/19 01:37:41;;;;;;;10.20;1.70;;;;;;;7.30;100.00;101000.78;5000264;28;20453;-51
2021/10/19 01:40:14;;;;;;;2.90;2.67;;;;;;;7.26;100.00;100999.88;5015967;28;20453;-50
2021/10/19 01:42:41;;;;;;;0.33;0.20;;;;;;;7.30;100.00;101001.66;5015438;28;20984;-51
2021/10/19 01:45:15;;;;;;;0.40;0.30;;;;;;;7.41;100.00;100994.56;5015756;28;20475;-50
2021/10/19 01:47:42;;;;;;;0.40;0.37;;;;;;;7.39;100.00;100995.44;5016555;28;20452;-51
2021/10/19 01:50:10;;;;;;;1.17;1.17;;;;;;;7.43;100.00;100976.91;5005443;28;20951;-52
2021/10/19 01:52:37;;;;;;;1.90;1.80;;;;;;;7.17;100.00;100965.56;5012490;28;20500;-49
2021/10/19 01:55:07;;;;;;;0.30;0.20;;;;;;;7.11;100.00;100968.22;4999669;28;20946;-50
2021/10/19 01:57:34;;;;;;;0.57;0.57;;;;;;;7.21;100.00;100962.00;5012939;28;20480;-50
2021/10/19 02:00:05;;;;;;;2.40;2.40;;;;;;;7.32;100.00;100969.91;5015726;28;20448;-51
2021/10/19 02:02:31;;;;;;;0.30;0.20;;;;;;;7.29;100.00;100978.75;5015136;28;20970;-50
2021/10/19 02:04:58;;;;;;;1.27;1.23;;;;;;;7.33;100.00;100972.53;5014991;28;20456;-50
2021/10/19 02:07:25;;;;;;;0.30;0.20;;;;;;;7.32;100.00;100962.84;5015168;28;20487;-50
2021/10/19 02:09:51;;;;;;;0.40;0.33;;;;;;;7.46;100.00;100972.50;5015253;28;20495;-51
2021/10/19 02:12:18;;;;;;;2.10;2.10;;;;;;;7.38;100.00;100967.22;5009412;28;20528;-51
2021/10/19 02:14:45;;;;;;;3.43;2.43;;;;;;;7.46;100.00;100969.84;4995498;28;20508;-50
2021/10/19 02:17:11;;;;;;;9.63;1.27;;;;;;;7.56;100.00;100969.81;5007960;28;20491;-50
2021/10/19 02:19:38;;;;;;;0.30;0.20;;;;;;;7.69;100.00;100967.97;5015361;28;20484;-51
2021/10/19 02:22:05;;;;;;;0.30;0.20;;;;;;;7.68;100.00;100964.44;5014556;28;20452;-51
2021/10/19 02:24:31;;;;;;;2.00;1.17;;;;;;;7.71;100.00;100969.72;4986107;28;20453;-50
2021/10/19 02:26:58;;;;;;;0.60;0.60;;;;;;;7.75;100.00;100962.63;5014241;28;20487;-51
2021/10/19 02:29:25;;;;;;;1.27;1.17;;;;;;;7.72;100.00;100958.22;5002867;28;20450;-51
2021/10/19 02:31:51;;;;;;;0.50;0.50;;;;;;;7.80;100.00;100952.00;5000505;28;20524;-51
2021/10/19 02:34:18;;;;;;;1.37;1.37;;;;;;;7.87;100.00;100936.06;5014809;28;20958;-51
2021/10/19 02:36:45;;;;;;;1.13;1.13;;;;;;;7.88;100.00;100931.66;5014504;28;20980;-51
2021/10/19 02:39:11;;;;;;;0.50;0.30;;;;;;;7.82;100.00;100934.38;5014787;28;20848;-50
2021/10/19 02:41:38;;;;;;;0.97;0.80;;;;;;;7.81;100.00;100936.13;5001595;28;20926;-50
2021/10/19 02:44:06;;;;;;;2.10;0.50;;;;;;;7.84;100.00;100935.22;5014417;28;20504;-51
2021/10/19 02:46:33;;;;;;;4.77;2.07;;;;;;;7.83;100.00;100937.00;5014618;28;20457;-51
2021/10/19 02:49:01;;;;;;;0.40;0.33;;;;;;;7.88;100.00;100935.19;5001804;28;20453;-51
2021/10/19 02:51:28;;;;;;;0.47;0.47;;;;;;;7.83;100.00;100949.34;4988196;28;20594;-51
2021/10/19 02:53:55;;;;;;;6.53;3.40;;;;;;;7.82;100.00;100953.78;5007621;28;20469;-51
2021/10/19 02:56:22;;;;;;;1.43;1.43;;;;;;;7.91;100.00;100944.88;4988642;28;20456;-51
2021/10/19 02:58:49;;;;;;;0.70;0.70;;;;;;;7.89;100.00;100938.72;5014380;28;20507;-51
2021/10/19 03:01:16;;;;;;;3.10;1.40;;;;;;;7.87;100.00;100938.72;5014226;28;20499;-51
2021/10/19 03:03:43;;;;;;;0.70;0.70;;;;;;;7.92;100.00;100944.84;5001140;28;20477;-51
2021/10/19 03:06:10;;;;;;;3.60;3.30;;;;;;;7.97;100.00;100950.13;5014064;28;20502;-51
2021/10/19 03:08:36;;;;;;;1.77;1.00;;;;;;;7.92;100.00;100952.78;5000673;28;20481;-51
2021/10/19 03:11:03;;;;;;;2.70;1.60;;;;;;;7.90;100.00;100945.75;5014278;28;20449;-51
2021/10/19 03:13:34;;;;;;;0.30;0.20;;;;;;;7.88;100.00;100951.06;5011866;28;20474;-51
2021/10/19 03:16:13;;;;;;;3.83;1.33;;;;;;;7.85;100.00;100942.28;5004876;28;20932;-51
2021/10/19 03:18:39;;;;;;;0.30;0.20;;;;;;;7.85;100.00;100943.16;5013855;28;20452;-51
2021/10/19 03:21:06;;;;;;;0.60;0.60;;;;;;;7.95;100.00;100949.28;5014619;28;20507;-51
2021/10/19 03:23:33;;;;;;;0.33;0.30;;;;;;;7.90;100.00;100936.06;5010125;28;20508;-51
2021/10/19 03:25:59;;;;;;;0.63;0.63;;;;;;;7.87;100.00;100941.38;5005709;28;20456;-51
2021/10/19 03:28:26;;;;;;;1.70;1.70;;;;;;;7.93;100.00;100957.19;5009082;28;20870;-51
2021/10/19 03:30:53;;;;;;;5.57;2.73;;;;;;;7.94;100.00;100956.31;5005994;28;20515;-51
2021/10/19 03:33:19;;;;;;;0.87;0.87;;;;;;;7.97;100.00;100969.53;5013926;28;20555;-49
2021/10/19 03:35:47;;;;;;;0.30;0.20;;;;;;;8.06;100.00;100965.06;5014580;28;20464;-48
2021/10/19 03:38:13;;;;;;;3.23;2.93;;;;;;;8.02;100.00;100959.78;5014259;28;20954;-48
2021/10/19 03:40:40;;;;;;;0.63;0.63;;;;;;;7.99;100.00;100970.41;5014329;28;20503;-48
2021/10/19 03:43:07;;;;;;;0.73;0.73;;;;;;;7.92;100.00;100973.97;5013849;28;20511;-48
2021/10/19 03:45:33;;;;;;;0.30;0.20;;;;;;;7.82;100.00;100972.28;5013822;28;20444;-48
2021/10/19 03:48:00;;;;;;;1.13;1.13;;;;;;;7.91;100.00;100968.69;5013140;28;20488;-48
2021/10/19 03:50:26;;;;;;;0.60;0.60;;;;;;;7.89;100.00;100962.53;5013698;28;20456;-48
2021/10/19 03:52:57;;;;;;;0.30;0.20;;;;;;;7.97;100.00;100966.91;5013157;28;20492;-48
2021/10/19 03:55:25;;;;;;;8.40;1.50;;;;;;;7.91;100.00;100966.03;5007319;28;20449;-48
2021/10/19 03:57:52;;;;;;;0.30;0.30;;;;;;;7.87;100.00;100959.91;5013119;28;20834;-48
2021/10/19 04:00:19;;;;;;;3.80;1.13;;;;;;;7.85;100.00;100963.44;5013748;28;20503;-48
2021/10/19 04:02:46;;;;;;;0.30;0.20;;;;;;;7.88;100.00;100966.94;4987124;28;20468;-47
2021/10/19 04:05:13;;;;;;;0.40;0.30;;;;;;;7.66;100.00;100950.31;5013718;28;20461;-48
2021/10/19 04:07:45;;;;;;;0.30;0.20;;;;;;;7.65;100.00;100950.31;4988302;28;20531;-48
2021/10/19 04:10:12;;;;;;;1.77;1.77;;;;;;;7.57;100.00;100947.75;5013034;28;20483;-48
2021/10/19 04:12:39;;;;;;;0.40;0.33;;;;;;;7.43;100.00;100937.25;5012950;28;20902;-48
2021/10/19 04:15:07;;;;;;;0.30;0.20;;;;;;;7.42;100.00;100938.13;5013130;28;20455;-48
2021/10/19 04:17:34;;;;;;;6.03;1.63;;;;;;;7.70;100.00;100932.69;5007004;28;20503;-48
2021/10/19 04:20:00;;;;;;;0.30;0.20;;;;;;;7.78;100.00;100928.19;5013138;28;20473;-48
2021/10/19 04:22:27;;;;;;;0.77;0.77;;;;;;;7.93;100.00;100929.84;5012847;28;20535;-48
2021/10/19 04:24:54;;;;;;;0.30;0.20;;;;;;;8.02;100.00;100932.44;5001275;28;20511;-48
2021/10/19 04:27:21;;;;;;;3.53;3.43;;;;;;;8.07;100.00;100943.84;5011798;28;20448;-48
2021/10/19 04:29:48;;;;;;;0.30;0.20;;;;;;;8.15;100.00;100939.38;5012675;28;20965;-48
2021/10/19 04:32:15;;;;;;;1.13;0.93;;;;;;;8.21;100.00;100943.75;5012881;28;20528;-48
2021/10/19 04:34:41;;;;;;;0.30;0.20;;;;;;;8.23;100.00;100942.88;5012629;28;20448;-48
2021/10/19 04:37:08;;;;;;;1.77;1.67;;;;;;;8.28;100.00;100945.47;5012734;28;20448;-49
2021/10/19 04:39:35;;;;;;;0.83;0.80;;;;;;;8.41;100.00;100949.78;5012623;28;20448;-49
2021/10/19 04:42:03;;;;;;;4.40;1.93;;;;;;;8.33;100.00;100947.16;5012633;28;20868;-50
2021/10/19 04:44:31;;;;;;;0.80;0.60;;;;;;;8.30;100.00;100949.84;5012686;28;20460;-49
2021/10/19 04:46:57;;;;;;;0.30;0.20;;;;;;;8.23;100.00;100947.28;5012657;28;20463;-49
2021/10/19 04:49:24;;;;;;;0.30;0.20;;;;;;;8.23;100.00;100950.81;5012723;28;20488;-49
2021/10/19 04:51:51;;;;;;;0.30;0.20;;;;;;;8.17;100.00;100953.50;5012623;28;20548;-49
2021/10/19 04:54:17;;;;;;;2.43;2.23;;;;;;;8.24;100.00;100944.63;5007366;28;20977;-49
2021/10/19 04:56:44;;;;;;;1.13;1.13;;;;;;;8.24;100.00;100949.03;4995044;28;20452;-49
2021/10/19 04:59:10;;;;;;;1.60;1.60;;;;;;;8.25;100.00;100942.84;4996299;28;20499;-48
2021/10/19 05:01:37;;;;;;;0.30;0.20;;;;;;;8.21;100.00;100938.44;5013088;28;20824;-48
2021/10/19 05:04:04;;;;;;;0.43;0.43;;;;;;;8.27;100.00;100944.59;5013436;28;20560;-49
2021/10/19 05:06:31;;;;;;;0.87;0.87;;;;;;;8.28;100.00;100943.69;5013358;28;21011;-48
2021/10/19 05:08:57;;;;;;;0.30;0.20;;;;;;;8.23;100.00;100934.03;5012926;28;20453;-49
2021/10/19 05:11:24;;;;;;;1.10;1.00;;;;;;;8.27;100.00;100947.25;5013361;28;20452;-49
2021/10/19 05:13:50;;;;;;;0.30;0.20;;;;;;;8.26;100.00;100947.25;5013226;28;20543;-49
2021/10/19 05:16:17;;;;;;;0.30;0.20;;;;;;;8.35;100.00;100941.00;5008972;28;20458;-49
2021/10/19 05:18:44;;;;;;;0.30;0.20;;;;;;;8.25;100.00;100937.56;5011550;28;20487;-49
2021/10/19 05:21:10;;;;;;;0.53;0.50;;;;;;;8.21;100.00;100930.50;5013017;28;20484;-49
2021/10/19 05:23:37;;;;;;;0.30;0.20;;;;;;;8.21;100.00;100938.44;5007873;28;20539;-49
2021/10/19 05:26:03;;;;;;;0.40;0.40;;;;;;;8.23;100.00;100934.03;5004252;28;20480;-50
2021/10/19 05:28:32;;;;;;;0.40;0.37;;;;;;;8.32;100.00;100932.16;5012241;28;20563;-50
2021/10/19 05:30:59;;;;;;;1.17;1.17;;;;;;;8.37;100.00;100926.88;5012085;28;20460;-49
2021/10/19 05:33:25;;;;;;;0.40;0.40;;;;;;;8.44;100.00;100925.03;5011818;28;20492;-49
2021/10/19 05:35:53;;;;;;;7.90;1.80;;;;;;;8.46;100.00;100929.44;5012121;28;20452;-49
2021/10/19 05:38:19;;;;;;;0.40;0.30;;;;;;;8.43;100.00;100924.16;5011690;28;20453;-49
2021/10/19 05:40:46;;;;;;;0.30;0.30;;;;;;;8.37;100.00;100918.94;5015755;28;20538;-47
2021/10/19 05:43:13;;;;;;;0.30;0.20;;;;;;;8.39;100.00;100927.75;5015446;28;21004;-48
2021/10/19 05:45:39;;;;;;;0.40;0.30;;;;;;;8.45;100.00;100913.56;5015722;28;20488;-48
2021/10/19 05:48:06;;;;;;;3.27;0.60;;;;;;;8.36;100.00;100903.03;5015333;28;20816;-47
2021/10/19 05:50:33;;;;;;;7.30;2.00;;;;;;;8.42;100.00;100911.81;5015308;28;20484;-48
2021/10/19 05:53:00;;;;;;;0.30;0.20;;;;;;;8.50;100.00;100909.09;5014918;28;20496;-47
2021/10/19 05:55:27;;;;;;;0.30;0.20;;;;;;;8.50;100.00;100912.63;5009067;28;20456;-47
2021/10/19 05:57:57;;;;;;;0.73;0.73;;;;;;;8.60;100.00;100906.31;5015036;28;21012;-48
2021/10/19 06:00:43;;;;;;;3.03;0.60;;;;;;;8.55;100.00;100907.28;5015324;28;20539;-47
2021/10/19 06:03:10;;;;;;;0.30;0.20;;;;;;;8.55;100.00;100905.50;5015254;28;20587;-48
2021/10/19 06:05:37;;;;;;;1.23;1.23;;;;;;;8.61;100.00;100905.41;5015041;28;20515;-48
2021/10/19 06:08:04;;;;;;;0.50;0.50;;;;;;;8.59;100.00;100912.50;5015360;28;20510;-47
2021/10/19 06:10:30;;;;;;;0.90;0.87;;;;;;;8.73;100.00;100912.38;5015042;28;20494;-48
2021/10/19 06:12:57;;;;;;;1.33;1.30;;;;;;;8.76;100.00;100911.44;5014872;28;20539;-47
2021/10/19 06:15:25;;;;;;;0.30;0.20;;;;;;;8.76;100.00;100914.97;5014929;28;20941;-48
2021/10/19 06:17:53;;;;;;;0.40;0.40;;;;;;;8.64;100.00;100907.19;5008383;28;20461;-49
2021/10/19 06:20:20;;;;;;;0.40;0.30;;;;;;;8.68;100.00;100903.59;5014791;28;20449;-48
2021/10/19 06:22:47;;;;;;;0.30;0.20;;;;;;;8.71;100.00;100913.28;5014785;28;20477;-48
2021/10/19 06:25:14;;;;;;;2.00;1.90;;;;;;;8.72;100.00;100912.38;5002679;28;20502;-48
2021/10/19 06:27:41;;;;;;;0.70;0.70;;;;;;;8.73;100.00;100901.75;5015149;28;20487;-48
2021/10/19 06:30:08;;;;;;;0.57;0.57;;;;;;;8.76;100.00;100899.06;5014518;28;20457;-47
2021/10/19 06:32:37;;;;;;;0.30;0.20;;;;;;;8.87;100.00;100899.84;5014310;28;20519;-48
2021/10/19 06:35:05;;;;;;;0.30;0.20;;;;;;;8.91;100.00;100903.34;5014611;28;20449;-47
2021/10/19 06:37:31;;;;;;;0.70;0.70;;;;;;;8.83;100.00;100899.91;5014673;28;20861;-47
2021/10/19 06:39:58;;;;;;;0.57;0.40;;;;;;;8.83;100.00;100892.81;5014316;28;20507;-48
2021/10/19 06:42:24;;;;;;;0.90;0.77;;;;;;;8.92;100.00;100896.28;5014376;28;20504;-47
2021/10/19 06:44:51;;;;;;;1.00;1.00;;;;;;;9.01;100.00;100896.13;5014268;28;20519;-48
2021/10/19 06:47:18;;;;;;;0.30;0.20;;;;;;;8.97;100.00;100889.13;5014427;28;20520;-47
2021/10/19 06:49:44;;;;;;;0.30;0.20;;;;;;;8.88;100.00;100895.41;5013985;28;20455;-47
2021/10/19 06:52:11;;;;;;;0.30;0.20;;;;;;;8.91;100.00;100900.69;5013546;28;20488;-47
2021/10/19 06:54:37;;;;;;;1.80;1.70;;;;;;;8.77;100.00;100894.66;5008743;28;20452;-48
2021/10/19 06:57:04;;;;;;;0.30;0.30;;;;;;;8.85;100.00;100887.50;5014112;28;20522;-48
2021/10/19 06:59:31;;;;;;;0.30;0.20;;;;;;;8.88;100.00;100885.69;5014014;28;20452;-49
2021/10/19 07:01:57;;;;;;;0.30;0.20;;;;;;;8.86;100.00;100878.66;5013828;28;20448;-48
2021/10/19 07:04:24;;;;;;;1.00;0.87;;;;;;;8.90;100.00;100873.28;5014294;28;20468;-48
2021/10/19 07:06:51;;;;;;;2.40;1.73;;;;;;;8.93;100.00;100876.81;5014014;28;20507;-48
2021/10/19 07:09:17;;;;;;;0.30;0.20;;;;;;;9.05;100.00;100884.63;5013876;28;20452;-48
2021/10/19 07:11:44;;;;;;;0.33;0.23;;;;;;;8.92;100.00;100875.94;5013886;28;20445;-48
2021/10/19 07:14:10;;;;;;;0.30;0.20;;;;;;;9.17;100.00;100874.69;5013755;28;20497;-48
2021/10/19 07:16:37;;;;;;;2.83;0.60;;;;;;;9.11;100.00;100887.19;5008027;28;20523;-48
2021/10/19 07:19:08;;;;;;;0.30;0.20;;;;;;;9.06;100.00;100891.69;5013830;28;20476;-48
2021/10/19 07:21:38;;;;;;;1.07;0.97;;;;;;;9.20;100.00;100890.59;5013515;28;20448;-49
2021/10/19 07:24:06;;;;;;;0.30;0.20;;;;;;;9.28;100.00;100890.47;5006260;28;20523;-51
2021/10/19 07:26:33;;;;;;;0.40;0.30;;;;;;;9.47;100.00;100891.13;5010220;28;20491;-51
2021/10/19 07:28:59;;;;;;;0.30;0.20;;;;;;;9.49;100.00;100887.53;5013735;28;20487;-51
2021/10/19 07:31:26;;;;;;;1.27;1.17;;;;;;;9.27;100.00;100904.63;5013519;28;20460;-51
2021/10/19 07:33:53;;;;;;;0.60;0.60;;;;;;;9.14;100.00;100888.00;5013472;28;20500;-51
2021/10/19 07:36:20;;;;;;;0.30;0.20;;;;;;;9.06;100.00;100897.84;5013313;28;20457;-51
2021/10/19 07:38:48;;;;;;;0.40;0.30;;;;;;;8.99;100.00;100887.31;5013474;28;20503;-51
2021/10/19 07:41:14;;;;;;;1.43;1.33;;;;;;;9.06;100.00;100886.38;5013450;28;20871;-51
2021/10/19 07:43:41;;;;;;;0.40;0.40;;;;;;;9.16;100.00;100893.28;5013423;28;20468;-50
2021/10/19 07:46:08;;;;;;;0.30;0.20;;;;;;;9.12;100.00;100892.47;5013122;28;20488;-51
2021/10/19 07:48:35;;;;;;;5.07;2.43;;;;;;;9.13;100.00;100885.38;5013511;28;20463;-51
2021/10/19 07:51:02;;;;;;;0.30;0.20;;;;;;;9.08;100.00;100887.22;5013118;28;20452;-50
2021/10/19 07:53:28;;;;;;;0.30;0.20;;;;;;;9.21;100.00;100891.47;5010355;28;20601;-50
2021/10/19 07:55:55;;;;;;;0.70;0.70;;;;;;;9.23;100.00;100892.31;5011058;28;20527;-51
2021/10/19 07:58:22;;;;;;;1.03;0.50;;;;;;;9.20;100.00;100898.56;5013766;28;20452;-49
2021/10/19 08:00:48;;;;;;;0.30;0.20;;;;;;;9.11;100.00;100887.19;5013085;28;20507;-51
2021/10/19 08:03:15;;;;;;;0.70;0.70;;;;;;;9.11;100.00;100887.19;5013032;28;20473;-51
2021/10/19 08:05:42;;;;;;;0.30;0.20;;;;;;;9.18;100.00;100883.53;5013224;28;20457;-50
2021/10/19 08:08:13;;;;;;;0.30;0.20;;;;;;;9.13;100.00;100880.06;5013250;28;20834;-51
2021/10/19 08:10:42;;;;;;;0.30;0.20;;;;;;;9.18;100.00;100889.75;5012804;28;20514;-51
2021/10/19 08:13:09;;;;;;;2.70;0.93;;;;;;;9.19;100.00;100875.59;5012779;28;20528;-50
2021/10/19 08:15:37;;;;;;;0.30;0.20;;;;;;;9.38;100.00;100883.28;5012693;28;20456;-50
2021/10/19 08:18:04;;;;;;;1.17;1.07;;;;;;;9.29;100.00;100884.28;5006517;28;20989;-51
2021/10/19 08:20:31;;;;;;;0.30;0.30;;;;;;;9.30;100.00;100874.53;4986620;28;20503;-51
2021/10/19 08:22:58;;;;;;;2.80;2.63;;;;;;;9.35;100.00;100885.97;5012464;28;20468;-50
2021/10/19 08:25:24;;;;;;;4.47;3.47;;;;;;;9.14;100.00;100881.81;4996913;28;20945;-51
2021/10/19 08:27:51;;;;;;;8.50;1.43;;;;;;;9.30;100.00;100886.03;4995346;28;20458;-51
2021/10/19 08:30:20;;;;;;;0.30;0.20;;;;;;;9.43;100.00;100876.13;4986934;28;20457;-51
2021/10/19 08:32:49;;;;;;;0.30;0.20;;;;;;;9.38;100.00;100864.69;5012213;28;20492;-51
2021/10/19 08:35:17;;;;;;;2.67;2.57;;;;;;;9.37;100.00;100877.09;5012504;28;20946;-51
2021/10/19 08:37:45;;;;;;;0.40;0.30;;;;;;;9.42;100.00;100874.38;5012329;28;20492;-51
2021/10/19 08:40:13;;;;;;;1.37;0.90;;;;;;;9.52;100.00;100880.41;5012830;28;20863;-51
2021/10/19 08:42:44;;;;;;;0.30;0.20;;;;;;;9.85;100.00;100879.00;5012387;28;20472;-51
2021/10/19 08:45:14;;;;;;;0.40;0.30;;;;;;;9.81;100.00;100886.16;5012874;28;20452;-51
2021/10/19 08:47:45;;;;;;;0.30;0.30;;;;;;;9.75;100.00;100880.97;5012405;28;20514;-51
2021/10/19 08:50:15;;;;;;;0.53;0.50;;;;;;;9.99;100.00;100880.53;5012476;28;20866;-50
2021/10/19 08:52:41;;;;;;;0.30;0.20;;;;;;;10.05;100.00;100887.53;5011940;28;21040;-50
2021/10/19 08:55:08;;;;;;;1.50;1.07;;;;;;;10.08;100.00;100880.41;5006893;28;20868;-51
2021/10/19 08:57:35;;;;;;;0.30;0.20;;;;;;;9.94;100.00;100876.22;5012216;28;20457;-51
2021/10/19 09:00:04;;;;;;;0.30;0.20;;;;;;;9.70;100.00;100888.09;5012455;28;20507;-51
2021/10/19 09:02:35;;;;;;;0.40;0.40;;;;;;;9.75;100.00;100886.28;5011935;28;20508;-50
2021/10/19 09:05:05;;;;;;;0.40;0.30;;;;;;;9.63;100.00;100882.03;5012250;28;20456;-51
2021/10/19 09:07:31;;;;;;;1.03;0.93;;;;;;;9.62;100.00;100874.97;5012200;28;20484;-51
2021/10/19 09:09:58;;;;;;;0.40;0.40;;;;;;;9.64;100.00;100874.94;5012337;28;20511;-51
2021/10/19 09:12:25;;;;;;;0.80;0.80;;;;;;;9.81;100.00;100870.22;5012202;28;20499;-50
2021/10/19 09:15:02;;;;;;;0.93;0.83;;;;;;;9.72;100.00;100865.94;5014673;28;20492;-50
2021/10/19 09:17:36;;;;;;;0.30;0.20;;;;;;;9.71;100.00;100874.78;4998764;28;20829;-50
2021/10/19 09:20:15;;;;;;;0.40;0.30;;;;;;;9.69;100.00;100862.44;5016131;28;20476;-51
2021/10/19 09:23:15;;;;;;;0.30;0.20;;;;;;;9.69;100.00;100868.63;5016213;28;20554;-51
2021/10/19 09:25:45;;;;;;;0.77;0.77;;;;;;;9.79;100.00;100864.94;4971260;28;20481;-51
2021/10/19 09:28:14;;;;;;;0.53;0.53;;;;;;;9.74;100.00;100863.28;5011594;28;20500;-50
2021/10/19 09:30:47;;;;;;;0.30;0.20;;;;;;;9.80;100.00;100864.03;5015850;28;20988;-50
2021/10/19 09:33:17;;;;;;;0.30;0.20;;;;;;;9.86;100.00;100862.19;5015929;28;20546;-50
2021/10/19 09:35:47;;;;;;;1.17;0.80;;;;;;;9.95;100.00;100865.56;5015939;28;20452;-50
2021/10/19 09:38:14;;;;;;;0.50;0.50;;;;;;;10.04;100.00;100861.88;5015786;28;20552;-50
2021/10/19 09:40:44;;;;;;;0.30;0.20;;;;;;;10.05;100.00;100861.88;5015556;28;21012;-51
2021/10/19 09:43:16;;;;;;;0.30;0.20;;;;;;;10.18;100.00;100867.84;5015838;28;20465;-51
2021/10/19 09:45:45;;;;;;;0.30;0.20;;;;;;;10.15;100.00;100859.06;5015693;28;20484;-50
2021/10/19 09:48:19;;;;;;;2.10;2.00;;;;;;;10.09;100.00;100868.00;5016290;28;20457;-50
2021/10/19 09:50:47;;;;;;;0.40;0.30;;;;;;;10.16;100.00;100867.00;5015443;28;20448;-49
2021/10/19 09:53:15;;;;;;;1.43;1.43;;;;;;;10.21;100.00;100859.84;5014871;28;20529;-50
2021/10/19 09:55:42;;;;;;;3.47;1.00;;;;;;;10.42;100.00;100860.38;5010415;28;20495;-50
2021/10/19 09:58:09;;;;;;;0.30;0.30;;;;;;;10.24;100.00;100862.44;5015521;28;20456;-49
2021/10/19 10:00:37;;;;;;;0.67;0.67;;;;;;;10.27;100.00;100859.72;5015574;28;20449;-50
2021/10/19 10:03:04;;;;;;;0.30;0.20;;;;;;;10.36;100.00;100851.59;5015460;28;20570;-51
2021/10/19 10:05:35;;;;;;;0.50;0.50;;;;;;;10.48;100.00;100849.59;5015601;28;20456;-51
2021/10/19 10:08:04;;;;;;;0.30;0.20;;;;;;;10.80;100.00;100855.16;5015410;28;20444;-51
2021/10/19 10:10:30;;;;;;;0.30;0.20;;;;;;;10.73;100.00;100853.53;5015230;28;20922;-51
2021/10/19 10:13:04;;;;;;;0.30;0.20;;;;;;;10.72;100.00;100851.78;5015303;28;20531;-51
2021/10/19 10:15:35;;;;;;;1.80;1.80;;;;;;;10.84;100.00;100854.22;5015241;28;20828;-51
2021/10/19 10:18:04;;;;;;;0.80;0.80;;;;;;;10.95;100.00;100854.84;5009212;28;20456;-51
2021/10/19 10:20:39;;;;;;;0.30;0.20;;;;;;;10.77;100.00;100849.91;5015061;28;20449;-50
2021/10/19 10:23:19;;;;;;;0.73;0.70;;;;;;;10.80;100.00;100846.31;5015098;28;20534;-50
2021/10/19 10:25:50;;;;;;;0.30;0.20;;;;;;;11.02;100.00;100846.75;4993852;28;20494;-50
2021/10/19 10:28:31;;;;;;;0.40;0.30;;;;;;;10.97;100.00;100850.38;5015115;28;20453;-50
2021/10/19 10:31:05;;;;;;;0.60;0.50;;;;;;;11.15;100.00;100850.88;5015621;28;20522;-51
2021/10/19 10:33:47;;;;;;;0.30;0.20;;;;;;;11.04;100.00;100847.56;5015318;28;20854;-51
2021/10/19 10:36:15;;;;;;;0.50;0.50;;;;;;;11.10;100.00;100844.78;5014825;28;20452;-50
2021/10/19 10:38:57;;;;;;;0.30;0.23;;;;;;;11.03;100.00;100845.81;5015051;28;20449;-50
2021/10/19 10:41:23;;;;;;;0.30;0.30;;;;;;;11.10;100.00;100842.09;5014694;28;20825;-50
2021/10/19 10:43:58;;;;;;;0.30;0.20;;;;;;;11.19;100.00;100841.91;5014591;28;21035;-51
2021/10/19 10:46:24;;;;;;;0.30;0.20;;;;;;;11.41;100.00;100837.88;5014705;28;20456;-51
2021/10/19 10:48:54;;;;;;;0.30;0.20;;;;;;;11.45;100.00;100833.34;5014695;28;20453;-48
2021/10/19 10:51:28;;;;;;;0.30;0.20;;;;;;;11.56;100.00;100826.84;5014714;28;20476;-51
2021/10/19 10:53:56;;;;;;;0.63;0.60;;;;;;;11.47;100.00;100832.38;5008464;28;20554;-48
2021/10/19 10:56:23;;;;;;;0.30;0.20;;;;;;;11.55;100.00;100829.56;5014665;28;20453;-51
2021/10/19 10:58:50;;;;;;;25.67;2.20;;;;;;;11.58;100.00;100822.38;5014327;28;20452;-48
2021/10/19 11:01:28;;;;;;;0.30;0.30;;;;;;;11.64;100.00;100823.13;5014255;28;20453;-48
2021/10/19 11:04:09;;;;;;;0.30;0.20;;;;;;;11.78;100.00;100815.66;5014708;28;20471;-49
2021/10/19 11:06:39;;;;;;;0.30;0.30;;;;;;;12.26;100.00;100815.34;5014246;28;20503;-48
2021/10/19 11:09:13;;;;;;;0.30;0.20;;;;;;;12.06;100.00;100819.44;5014177;28;20448;-49
2021/10/19 11:11:42;;;;;;;0.40;0.30;;;;;;;12.00;100.00;100805.38;5013761;28;20445;-48
2021/10/19 11:14:14;;;;;;;0.30;0.20;;;;;;;12.05;100.00;100801.66;5014220;28;20492;-49
2021/10/19 11:16:46;;;;;;;0.30;0.20;;;;;;;12.11;100.00;100809.50;5008069;28;20516;-49
2021/10/19 11:19:23;;;;;;;0.60;0.60;;;;;;;12.23;100.00;100800.31;5013905;28;20875;-51
2021/10/19 11:22:12;;;;;;;0.30;0.20;;;;;;;12.39;100.00;100806.97;5013888;28;20507;-49
2021/10/19 11:24:39;;;;;;;2.53;1.90;;;;;;;12.37;100.00;100815.94;5002530;28;20441;-49
2021/10/19 11:27:06;;;;;;;0.40;0.40;;;;;;;12.40;100.00;100807.84;5014297;28;20448;-49
2021/10/19 11:29:37;;;;;;;2.07;1.97;;;;;;;12.38;100.00;100799.03;5013701;28;20449;-49